Time;durP1;ratioP1;P1;durP2;ratioP2;P2;SDS_P1;SDS_P2;PMS_P1;PMS_P2;Temp;Humidity;BMP_temperature;BMP_pressure;BME280_temperature;BME280_humidity;BME280_pressure;Samples;Min_cycle;Max_cycle;Signal;HPM_P1;HPM_P2
2023/07/19 00:01:44;;;;;;;;;;;19.10;48.00;;;;;;6275131;22;19903;-70
2023/07/19 00:04:09;;;;;;;;;;;19.00;48.00;;;;;;6275710;22;20295;-70
2023/07/19 00:06:35;;;;;;;;;;;19.00;47.90;;;;;;6275038;22;19907;-70
2023/07/19 00:09:00;;;;;;;;;;;19.00;48.00;;;;;;6248790;22;19918;-70
2023/07/19 00:11:26;;;;;;;;;;;19.00;48.00;;;;;;6275219;22;20333;-70
2023/07/19 00:13:52;;;;;;;;;;;19.00;48.00;;;;;;6276163;22;19994;-70
2023/07/19 00:16:17;;;;;;;;;;;19.00;48.10;;;;;;6275086;22;19908;-70
2023/07/19 00:18:43;;;;;;;;;;;19.10;48.10;;;;;;6275960;22;19958;-70
2023/07/19 00:21:08;;;;;;;;;;;19.10;48.20;;;;;;6275460;22;19914;-68
2023/07/19 00:23:34;;;;;;;;;;;19.10;48.20;;;;;;6275274;22;19986;-70
2023/07/19 00:25:59;;;;;;;;;;;19.20;48.40;;;;;;6247628;22;19915;-69
2023/07/19 00:28:25;;;;;;;;;;;19.20;48.40;;;;;;6275844;22;19959;-69
2023/07/19 00:30:58;;;;;;;;;;;19.20;48.30;;;;;;6275555;22;19934;-69
2023/07/19 00:33:24;;;;;;;;;;;19.20;48.20;;;;;;6275408;22;19915;-71
2023/07/19 00:35:51;;;;;;;;;;;19.20;48.40;;;;;;6274716;22;19912;-72
2023/07/19 00:38:16;;;;;;;;;;;19.10;48.80;;;;;;6248112;22;19990;-69
2023/07/19 00:40:42;;;;;;;;;;;19.10;49.10;;;;;;6275376;22;19938;-70
2023/07/19 00:43:09;;;;;;;;;;;19.10;48.90;;;;;;6275404;22;19914;-70
2023/07/19 00:45:34;;;;;;;;;;;19.00;48.90;;;;;;6275249;22;20226;-69
2023/07/19 00:48:00;;;;;;;;;;;19.10;49.00;;;;;;6274572;22;20030;-71
2023/07/19 00:50:26;;;;;;;;;;;19.00;49.10;;;;;;6275004;22;20249;-70
2023/07/19 00:52:51;;;;;;;;;;;19.10;49.10;;;;;;6274986;22;20238;-70
2023/07/19 00:55:17;;;;;;;;;;;19.10;49.50;;;;;;6274702;22;19907;-70
2023/07/19 00:57:43;;;;;;;;;;;19.10;49.50;;;;;;6274031;22;19911;-69
2023/07/19 01:00:10;;;;;;;;;;;19.20;49.50;;;;;;6274333;22;19983;-71
2023/07/19 01:02:36;;;;;;;;;;;19.20;49.40;;;;;;6275025;22;19904;-76
2023/07/19 01:05:01;;;;;;;;;;;19.20;49.30;;;;;;6274730;22;19907;-77
2023/07/19 01:07:28;;;;;;;;;;;19.20;49.40;;;;;;6274676;22;19904;-77
2023/07/19 01:09:54;;;;;;;;;;;19.20;50.40;;;;;;6275308;22;20163;-76
2023/07/19 01:12:19;;;;;;;;;;;19.20;50.80;;;;;;6274542;22;20573;-76
2023/07/19 01:14:45;;;;;;;;;;;19.10;50.80;;;;;;6275542;22;19943;-77
2023/07/19 01:17:10;;;;;;;;;;;19.10;50.40;;;;;;6274041;22;19907;-76
2023/07/19 01:19:36;;;;;;;;;;;19.00;50.20;;;;;;6275101;22;19911;-77
2023/07/19 01:22:02;;;;;;;;;;;19.00;50.00;;;;;;6274264;22;19910;-72
2023/07/19 01:24:27;;;;;;;;;;;18.90;50.00;;;;;;6275480;22;20318;-77
2023/07/19 01:26:53;;;;;;;;;;;18.90;50.20;;;;;;6274315;22;19907;-76
2023/07/19 01:29:18;;;;;;;;;;;18.90;50.10;;;;;;6274587;22;19915;-76
2023/07/19 01:31:44;;;;;;;;;;;18.90;50.10;;;;;;6274018;22;19998;-78
2023/07/19 01:34:09;;;;;;;;;;;18.90;50.00;;;;;;6274921;22;19957;-77
2023/07/19 01:36:34;;;;;;;;;;;18.90;50.10;;;;;;6274303;22;19907;-77
2023/07/19 01:39:00;;;;;;;;;;;18.80;50.20;;;;;;6274886;22;19907;-77
2023/07/19 01:41:25;;;;;;;;;;;18.80;50.20;;;;;;6273955;22;19907;-77
2023/07/19 01:43:51;;;;;;;;;;;18.80;50.10;;;;;;6274836;22;19949;-78
2023/07/19 01:46:17;;;;;;;;;;;18.70;50.10;;;;;;6274197;22;19918;-77
2023/07/19 01:48:42;;;;;;;;;;;18.70;50.10;;;;;;6273770;22;19990;-76
2023/07/19 01:51:08;;;;;;;;;;;18.70;50.10;;;;;;6274106;22;20321;-76
2023/07/19 01:53:33;;;;;;;;;;;18.60;50.20;;;;;;6274158;22;20001;-77
2023/07/19 01:55:58;;;;;;;;;;;18.60;50.30;;;;;;6274032;22;19907;-77
2023/07/19 01:58:24;;;;;;;;;;;18.60;50.40;;;;;;6274023;22;19919;-77
2023/07/19 02:00:51;;;;;;;;;;;18.50;50.40;;;;;;6274185;22;20372;-77
2023/07/19 02:03:18;;;;;;;;;;;18.40;50.50;;;;;;6273863;22;19946;-77
2023/07/19 02:05:43;;;;;;;;;;;18.40;50.60;;;;;;6274255;22;20317;-77
2023/07/19 02:08:09;;;;;;;;;;;18.30;50.60;;;;;;6273987;22;19911;-77
2023/07/19 02:10:34;;;;;;;;;;;18.30;50.70;;;;;;6274191;22;19903;-77
2023/07/19 02:13:00;;;;;;;;;;;18.20;50.80;;;;;;6273976;22;19911;-76
2023/07/19 02:15:25;;;;;;;;;;;18.20;50.80;;;;;;6273776;22;20385;-77
2023/07/19 02:17:51;;;;;;;;;;;18.10;51.10;;;;;;6274253;22;19941;-77
2023/07/19 02:20:19;;;;;;;;;;;18.10;51.30;;;;;;6273369;22;19974;-77
2023/07/19 02:22:45;;;;;;;;;;;18.10;51.40;;;;;;6274050;22;19926;-77
2023/07/19 02:25:10;;;;;;;;;;;18.00;51.30;;;;;;6274101;22;19911;-77
2023/07/19 02:27:36;;;;;;;;;;;18.00;51.50;;;;;;6274287;22;20322;-77
2023/07/19 02:30:02;;;;;;;;;;;18.00;51.50;;;;;;6273466;22;20321;-77
2023/07/19 02:32:27;;;;;;;;;;;18.00;51.50;;;;;;6246537;22;19957;-77
2023/07/19 02:34:53;;;;;;;;;;;18.10;51.70;;;;;;6274720;22;19915;-77
2023/07/19 02:37:18;;;;;;;;;;;18.10;51.90;;;;;;6273719;22;19952;-76
2023/07/19 02:39:43;;;;;;;;;;;18.20;52.00;;;;;;6273449;22;19935;-77
2023/07/19 02:42:09;;;;;;;;;;;18.20;52.00;;;;;;6273671;22;19907;-76
2023/07/19 02:44:34;;;;;;;;;;;18.20;52.10;;;;;;6274717;22;19964;-76
2023/07/19 02:47:00;;;;;;;;;;;18.20;52.20;;;;;;6273519;22;19965;-76
2023/07/19 02:49:25;;;;;;;;;;;18.20;52.30;;;;;;6273245;22;19989;-76
2023/07/19 02:51:51;;;;;;;;;;;18.20;52.30;;;;;;6272767;22;19903;-76
2023/07/19 02:54:16;;;;;;;;;;;18.20;52.20;;;;;;6273817;22;19912;-76
2023/07/19 02:56:42;;;;;;;;;;;18.10;52.20;;;;;;6246698;22;19943;-76
2023/07/19 02:59:07;;;;;;;;;;;18.10;52.30;;;;;;6274994;22;19918;-76
2023/07/19 03:01:32;;;;;;;;;;;18.00;52.30;;;;;;6274186;22;20199;-76
2023/07/19 03:03:59;;;;;;;;;;;18.00;52.30;;;;;;6276296;22;19911;-76
2023/07/19 03:06:24;;;;;;;;;;;18.00;52.40;;;;;;6275669;22;19914;-76
2023/07/19 03:08:50;;;;;;;;;;;17.90;52.40;;;;;;6275616;22;19911;-76
2023/07/19 03:11:15;;;;;;;;;;;17.90;52.50;;;;;;6274900;22;19961;-75
2023/07/19 03:13:41;;;;;;;;;;;17.90;52.70;;;;;;6276003;22;19973;-76
2023/07/19 03:16:06;;;;;;;;;;;18.00;52.70;;;;;;6275682;22;20340;-75
2023/07/19 03:18:32;;;;;;;;;;;18.00;52.80;;;;;;6275671;22;20296;-76
2023/07/19 03:20:58;;;;;;;;;;;18.00;52.80;;;;;;6275261;22;20331;-76
2023/07/19 03:23:24;;;;;;;;;;;18.00;52.90;;;;;;6275616;22;19911;-75
2023/07/19 03:25:50;;;;;;;;;;;18.10;52.80;;;;;;6275804;22;19915;-75
2023/07/19 03:28:15;;;;;;;;;;;18.10;52.70;;;;;;6276126;22;19918;-75
2023/07/19 03:30:41;;;;;;;;;;;18.20;52.70;;;;;;6275308;22;19907;-77
2023/07/19 03:33:06;;;;;;;;;;;18.30;52.70;;;;;;6275689;22;19919;-76
2023/07/19 03:35:32;;;;;;;;;;;18.30;52.70;;;;;;6275515;22;19954;-77
2023/07/19 03:37:57;;;;;;;;;;;18.30;52.70;;;;;;6275970;22;20225;-76
2023/07/19 03:40:22;;;;;;;;;;;18.30;52.80;;;;;;6275461;22;20036;-75
2023/07/19 03:42:48;;;;;;;;;;;18.40;52.70;;;;;;6275422;22;19903;-76
2023/07/19 03:45:13;;;;;;;;;;;18.40;52.80;;;;;;6275552;22;19907;-76
2023/07/19 03:47:39;;;;;;;;;;;18.40;52.90;;;;;;6275492;22;19918;-76
2023/07/19 03:50:05;;;;;;;;;;;18.50;52.80;;;;;;6275547;22;19904;-75
2023/07/19 03:52:30;;;;;;;;;;;18.50;53.00;;;;;;6274782;22;19909;-76
2023/07/19 03:54:56;;;;;;;;;;;18.50;52.90;;;;;;6275536;22;19910;-75
2023/07/19 03:57:22;;;;;;;;;;;18.50;53.00;;;;;;6275472;22;19911;-75
2023/07/19 03:59:47;;;;;;;;;;;18.50;53.00;;;;;;6276073;22;19911;-76
2023/07/19 04:02:13;;;;;;;;;;;18.60;53.10;;;;;;6274667;22;19904;-76
2023/07/19 04:04:38;;;;;;;;;;;18.60;53.00;;;;;;6276024;22;19911;-76
2023/07/19 04:07:04;;;;;;;;;;;18.70;53.10;;;;;;6275295;22;19907;-76
2023/07/19 04:09:29;;;;;;;;;;;18.80;53.10;;;;;;6275937;22;19915;-75
2023/07/19 04:11:55;;;;;;;;;;;18.80;53.20;;;;;;6274280;22;20290;-77
2023/07/19 04:14:20;;;;;;;;;;;18.90;53.20;;;;;;6275970;22;20069;-75
2023/07/19 04:16:46;;;;;;;;;;;18.90;53.20;;;;;;6275202;22;19904;-75
2023/07/19 04:19:11;;;;;;;;;;;19.00;53.30;;;;;;6275905;22;20357;-75
2023/07/19 04:21:37;;;;;;;;;;;19.20;53.30;;;;;;6274860;22;19982;-76
2023/07/19 04:24:02;;;;;;;;;;;19.20;53.40;;;;;;6273842;22;20313;-76
2023/07/19 04:26:28;;;;;;;;;;;19.50;53.80;;;;;;6273747;22;19918;-76
2023/07/19 04:28:53;;;;;;;;;;;19.70;53.70;;;;;;6275198;22;20332;-76
2023/07/19 04:31:19;;;;;;;;;;;19.80;53.30;;;;;;6274197;22;19956;-75
2023/07/19 04:33:44;;;;;;;;;;;19.90;53.20;;;;;;6274987;22;19917;-76
2023/07/19 04:36:13;;;;;;;;;;;20.00;53.20;;;;;;6275025;22;19909;-76
2023/07/19 04:38:39;;;;;;;;;;;20.00;53.00;;;;;;6275472;22;19911;-76
2023/07/19 04:41:04;;;;;;;;;;;20.20;52.90;;;;;;6274769;22;19929;-75
2023/07/19 04:43:30;;;;;;;;;;;20.30;52.80;;;;;;6247531;22;19918;-76
2023/07/19 04:45:56;;;;;;;;;;;20.60;53.50;;;;;;6274773;22;20241;-76
2023/07/19 04:48:21;;;;;;;;;;;21.00;53.40;;;;;;6275114;22;19911;-75
2023/07/19 04:50:51;;;;;;;;;;;21.20;52.80;;;;;;6274945;22;20294;-77
2023/07/19 04:53:17;;;;;;;;;;;21.50;52.60;;;;;;6274484;22;19918;-76
2023/07/19 04:55:42;;;;;;;;;;;21.80;52.30;;;;;;6274137;22;20314;-76
2023/07/19 04:58:08;;;;;;;;;;;22.00;51.80;;;;;;6275256;22;19919;-76
2023/07/19 05:00:33;;;;;;;;;;;22.20;51.40;;;;;;6274520;22;20275;-77
2023/07/19 05:02:59;;;;;;;;;;;22.30;51.10;;;;;;6274256;22;19986;-77
2023/07/19 05:05:25;;;;;;;;;;;22.30;50.80;;;;;;6273291;22;19920;-76
2023/07/19 05:07:51;;;;;;;;;;;22.40;50.60;;;;;;6274734;22;19970;-76
2023/07/19 05:10:16;;;;;;;;;;;22.40;50.40;;;;;;6274429;22;19925;-77
2023/07/19 05:12:42;;;;;;;;;;;22.40;50.30;;;;;;6272939;22;19914;-77
2023/07/19 05:15:08;;;;;;;;;;;22.50;50.20;;;;;;6274837;22;19951;-77
2023/07/19 05:17:33;;;;;;;;;;;22.50;50.10;;;;;;6275036;22;19910;-76
2023/07/19 05:19:59;;;;;;;;;;;22.50;50.10;;;;;;6274943;22;19911;-76
2023/07/19 05:22:26;;;;;;;;;;;22.60;50.20;;;;;;6273729;22;20317;-77
2023/07/19 05:24:51;;;;;;;;;;;22.60;50.20;;;;;;6274603;22;20308;-76
2023/07/19 05:27:17;;;;;;;;;;;22.70;50.20;;;;;;6274666;22;19903;-76
2023/07/19 05:29:43;;;;;;;;;;;22.80;50.30;;;;;;6275024;22;19911;-76
2023/07/19 05:32:08;;;;;;;;;;;22.90;50.10;;;;;;6274438;22;19903;-77
2023/07/19 05:34:34;;;;;;;;;;;23.10;49.80;;;;;;6274693;22;20225;-76
2023/07/19 05:37:00;;;;;;;;;;;23.20;49.40;;;;;;6273773;22;19914;-77
2023/07/19 05:39:25;;;;;;;;;;;23.20;49.10;;;;;;6274036;22;19965;-78
2023/07/19 05:41:51;;;;;;;;;;;23.30;48.90;;;;;;6274042;22;19965;-78
2023/07/19 05:44:16;;;;;;;;;;;23.40;48.70;;;;;;6271265;22;20207;-76
2023/07/19 05:46:42;;;;;;;;;;;23.60;48.50;;;;;;6272523;22;19918;-76
2023/07/19 05:49:08;;;;;;;;;;;23.70;48.30;;;;;;6274070;22;20365;-76
2023/07/19 05:51:33;;;;;;;;;;;23.80;48.10;;;;;;6273722;22;19903;-76
2023/07/19 05:54:15;;;;;;;;;;;23.90;47.80;;;;;;5086703;28;20058;-76
2023/07/19 05:56:41;;;;;;;;;;;24.00;47.50;;;;;;5073964;28;19919;-76
2023/07/19 05:59:06;;;;;;;;;;;24.00;47.30;;;;;;5067469;28;19916;-74
2023/07/19 06:01:31;;;;;;;;;;;24.10;47.10;;;;;;5067432;28;19916;-75
2023/07/19 06:03:57;;;;;;;;;;;24.20;46.90;;;;;;5083343;28;20330;-75
2023/07/19 06:06:23;;;;;;;;;;;24.30;46.80;;;;;;5085188;28;20279;-75
2023/07/19 06:08:49;;;;;;;;;;;24.40;46.70;;;;;;5088650;28;19923;-75
2023/07/19 06:11:14;;;;;;;;;;;24.70;46.60;;;;;;5073123;28;20339;-76
2023/07/19 06:13:40;;;;;;;;;;;25.10;46.70;;;;;;5067168;28;20308;-76
2023/07/19 06:16:05;;;;;;;;;;;25.50;46.50;;;;;;5068005;28;20003;-76
2023/07/19 06:18:30;;;;;;;;;;;25.80;45.90;;;;;;5057794;28;20024;-77
2023/07/19 06:20:56;;;;;;;;;;;26.10;45.30;;;;;;5069183;28;19998;-75
2023/07/19 06:23:21;;;;;;;;;;;26.30;44.60;;;;;;5068271;28;20336;-76
2023/07/19 06:25:48;;;;;;;;;;;26.50;44.30;;;;;;5061498;28;19913;-76
2023/07/19 06:28:13;;;;;;;;;;;26.70;44.00;;;;;;5048326;28;20061;-75
2023/07/19 06:30:39;;;;;;;;;;;26.80;43.70;;;;;;5063919;28;20336;-76
2023/07/19 06:33:04;;;;;;;;;;;27.00;43.20;;;;;;5081976;28;20062;-76
2023/07/19 06:35:29;;;;;;;;;;;27.20;43.00;;;;;;5082558;28;20415;-75
2023/07/19 06:37:55;;;;;;;;;;;27.30;42.50;;;;;;5072843;28;20390;-74
2023/07/19 06:40:20;;;;;;;;;;;27.30;42.10;;;;;;5070645;28;20276;-75
2023/07/19 06:42:46;;;;;;;;;;;27.40;41.90;;;;;;5067159;28;19944;-75
2023/07/19 06:45:11;;;;;;;;;;;27.50;41.70;;;;;;5081240;28;20054;-75
2023/07/19 06:47:37;;;;;;;;;;;27.60;41.50;;;;;;5057087;28;20274;-74
2023/07/19 06:50:03;;;;;;;;;;;27.70;41.30;;;;;;5040015;28;19920;-75
2023/07/19 06:52:28;;;;;;;;;;;27.80;40.90;;;;;;5046734;28;19921;-75
2023/07/19 06:54:54;;;;;;;;;;;27.90;40.20;;;;;;5047766;28;19924;-75
2023/07/19 06:57:20;;;;;;;;;;;27.90;40.00;;;;;;5040356;28;19928;-74
2023/07/19 06:59:48;;;;;;;;;;;28.00;39.50;;;;;;5028608;28;20305;-75
2023/07/19 07:02:13;;;;;;;;;;;27.90;39.60;;;;;;5046529;28;19917;-75
2023/07/19 07:04:38;;;;;;;;;;;27.90;39.60;;;;;;5035499;28;20327;-75
2023/07/19 07:07:04;;;;;;;;;;;27.90;39.50;;;;;;5033043;28;20387;-75
2023/07/19 07:09:30;;;;;;;;;;;28.00;39.40;;;;;;5028391;28;19975;-75
2023/07/19 07:11:56;;;;;;;;;;;28.20;39.00;;;;;;5037969;28;19982;-74
2023/07/19 07:14:21;;;;;;;;;;;28.30;38.80;;;;;;5053860;28;20292;-75
2023/07/19 07:16:47;;;;;;;;;;;28.50;38.50;;;;;;5036405;28;19917;-75
2023/07/19 07:19:12;;;;;;;;;;;28.50;37.60;;;;;;5024819;28;19957;-75
2023/07/19 07:21:37;;;;;;;;;;;28.50;37.60;;;;;;5028104;28;19916;-75
2023/07/19 07:24:03;;;;;;;;;;;28.70;37.50;;;;;;5033323;28;19913;-76
2023/07/19 07:26:28;;;;;;;;;;;29.10;38.20;;;;;;5028203;28;20335;-76
2023/07/19 07:28:54;;;;;;;;;;;29.80;38.50;;;;;;5032831;28;20060;-75
2023/07/19 07:31:19;;;;;;;;;;;30.40;37.00;;;;;;5015069;28;19909;-76
2023/07/19 07:33:45;;;;;;;;;;;30.80;36.20;;;;;;5039466;28;19920;-76
2023/07/19 07:36:10;;;;;;;;;;;31.00;35.50;;;;;;5033324;28;19909;-75
2023/07/19 07:38:36;;;;;;;;;;;31.10;34.70;;;;;;5001686;28;20418;-75
2023/07/19 07:41:02;;;;;;;;;;;31.10;34.80;;;;;;5035918;28;19910;-76
2023/07/19 07:43:30;;;;;;;;;;;31.40;35.10;;;;;;5013292;28;19928;-76
2023/07/19 07:45:56;;;;;;;;;;;32.00;35.10;;;;;;5028167;28;20382;-75
2023/07/19 07:48:24;;;;;;;;;;;32.70;34.80;;;;;;5015444;28;19917;-76
2023/07/19 07:50:51;;;;;;;;;;;33.30;34.30;;;;;;5038811;28;19956;-75
2023/07/19 07:53:17;;;;;;;;;;;34.20;33.40;;;;;;5024390;28;20396;-75
2023/07/19 07:55:43;;;;;;;;;;;34.50;31.80;;;;;;5032890;28;19909;-75
2023/07/19 07:58:08;;;;;;;;;;;34.70;31.10;;;;;;5050594;28;20007;-68
2023/07/19 08:00:34;;;;;;;;;;;34.90;30.70;;;;;;5043256;28;19948;-68
2023/07/19 08:02:59;;;;;;;;;;;35.20;30.50;;;;;;5028426;28;19917;-71
2023/07/19 08:05:25;;;;;;;;;;;35.30;29.80;;;;;;5031639;28;19917;-69
2023/07/19 08:07:50;;;;;;;;;;;35.20;29.20;;;;;;5032515;28;20004;-69
2023/07/19 08:10:15;;;;;;;;;;;35.10;29.20;;;;;;5037659;28;19995;-69
2023/07/19 08:12:41;;;;;;;;;;;35.20;29.70;;;;;;5024483;28;19991;-70
2023/07/19 08:15:07;;;;;;;;;;;35.60;29.50;;;;;;5042441;28;19917;-69
2023/07/19 08:17:33;;;;;;;;;;;36.00;28.70;;;;;;5031716;28;19987;-71
2023/07/19 08:19:58;;;;;;;;;;;36.20;28.20;;;;;;5032775;28;19909;-70
2023/07/19 08:22:24;;;;;;;;;;;36.30;27.90;;;;;;5012890;28;19922;-69
2023/07/19 08:24:50;;;;;;;;;;;36.30;27.90;;;;;;5020456;28;19913;-69
2023/07/19 08:27:15;;;;;;;;;;;36.80;28.30;;;;;;5032389;28;19971;-69
2023/07/19 08:29:41;;;;;;;;;;;37.30;28.10;;;;;;5038352;28;19978;-69
2023/07/19 08:32:06;;;;;;;;;;;37.90;27.30;;;;;;4999511;28;19926;-76
2023/07/19 08:34:32;;;;;;;;;;;38.50;26.50;;;;;;5018535;28;20047;-76
2023/07/19 08:36:58;;;;;;;;;;;39.00;25.80;;;;;;5021044;28;19940;-74
2023/07/19 08:39:23;;;;;;;;;;;39.30;25.40;;;;;;5021481;28;19913;-75
2023/07/19 08:41:49;;;;;;;;;;;39.70;24.90;;;;;;5023163;28;19913;-75
2023/07/19 08:44:14;;;;;;;;;;;40.20;24.30;;;;;;5022217;28;19913;-76
2023/07/19 08:46:41;;;;;;;;;;;40.50;23.30;;;;;;5024044;28;19909;-72
2023/07/19 08:49:07;;;;;;;;;;;40.70;22.30;;;;;;5027515;28;20359;-76
2023/07/19 08:51:33;;;;;;;;;;;40.40;22.70;;;;;;5030768;28;19952;-75
2023/07/19 08:53:59;;;;;;;;;;;40.70;22.60;;;;;;5031848;28;20016;-75
2023/07/19 08:56:25;;;;;;;;;;;40.80;21.70;;;;;;5026894;28;19912;-76
2023/07/19 08:58:50;;;;;;;;;;;40.80;21.50;;;;;;5051978;28;19928;-76
2023/07/19 09:01:15;;;;;;;;;;;41.00;21.50;;;;;;5030053;28;19945;-75
2023/07/19 09:03:41;;;;;;;;;;;41.30;21.50;;;;;;5045047;28;19925;-76
2023/07/19 09:06:07;;;;;;;;;;;41.30;21.20;;;;;;5004208;28;19918;-76
2023/07/19 09:08:37;;;;;;;;;;;41.20;20.70;;;;;;5035808;28;19917;-76
2023/07/19 09:11:02;;;;;;;;;;;40.90;20.90;;;;;;5009918;28;20289;-76
2023/07/19 09:13:30;;;;;;;;;;;40.70;21.20;;;;;;5051784;28;19920;-76
2023/07/19 09:15:55;;;;;;;;;;;40.40;21.30;;;;;;5020079;28;19916;-74
2023/07/19 09:18:28;;;;;;;;;;;40.30;21.20;;;;;;5050659;28;20384;-75
2023/07/19 09:20:57;;;;;;;;;;;40.10;21.40;;;;;;5009448;28;19932;-75
2023/07/19 09:23:22;;;;;;;;;;;40.00;21.50;;;;;;5031987;28;20296;-75
2023/07/19 09:25:57;;;;;;;;;;;39.80;21.50;;;;;;5037566;28;19909;-76
2023/07/19 09:28:23;;;;;;;;;;;39.60;21.80;;;;;;5016480;28;19917;-77
2023/07/19 09:30:59;;;;;;;;;;;39.60;21.70;;;;;;5036986;28;20452;-75
2023/07/19 09:33:25;;;;;;;;;;;39.80;22.30;;;;;;5025074;28;19925;-76
2023/07/19 09:35:54;;;;;;;;;;;40.30;22.50;;;;;;5032193;28;19910;-75
2023/07/19 09:38:21;;;;;;;;;;;40.90;21.90;;;;;;5029262;28;20012;-75
2023/07/19 09:40:47;;;;;;;;;;;41.10;21.10;;;;;;5030633;28;19913;-75
2023/07/19 09:43:15;;;;;;;;;;;41.10;21.20;;;;;;5031528;28;20296;-76
2023/07/19 09:45:41;;;;;;;;;;;41.10;21.10;;;;;;5036034;28;20170;-75
2023/07/19 09:48:07;;;;;;;;;;;41.00;21.10;;;;;;5036622;28;19920;-75
2023/07/19 09:50:34;;;;;;;;;;;41.00;21.10;;;;;;5041091;28;19996;-76
2023/07/19 09:53:01;;;;;;;;;;;40.90;21.00;;;;;;5024202;28;19920;-76
2023/07/19 09:55:28;;;;;;;;;;;40.80;21.00;;;;;;5043023;28;19920;-76
2023/07/19 09:57:54;;;;;;;;;;;40.60;21.00;;;;;;5011817;28;20020;-76
2023/07/19 10:00:19;;;;;;;;;;;40.30;21.30;;;;;;5042415;28;19945;-77
2023/07/19 10:02:45;;;;;;;;;;;40.20;21.20;;;;;;5025162;28;20355;-75
2023/07/19 10:05:10;;;;;;;;;;;40.10;21.50;;;;;;5030323;28;19909;-77
2023/07/19 10:07:39;;;;;;;;;;;40.10;21.40;;;;;;5044103;28;20396;-76
2023/07/19 10:10:05;;;;;;;;;;;40.10;21.60;;;;;;5048637;28;19958;-76
2023/07/19 10:12:32;;;;;;;;;;;40.20;21.60;;;;;;5036164;28;19925;-75
2023/07/19 10:15:04;;;;;;;;;;;40.30;21.80;;;;;;5048085;28;20550;-77
2023/07/19 10:17:40;;;;;;;;;;;40.60;21.50;;;;;;5031139;28;20357;-76
2023/07/19 10:20:06;;;;;;;;;;;40.90;21.60;;;;;;5029394;28;19960;-68
2023/07/19 10:22:50;;;;;;;;;;;41.30;21.30;;;;;;5010888;28;19917;-68
2023/07/19 10:25:22;;;;;;;;;;;41.60;20.30;;;;;;5013851;28;19914;-69
2023/07/19 10:28:13;;;;;;;;;;;41.80;20.00;;;;;;5051129;28;19921;-69
2023/07/19 10:30:45;;;;;;;;;;;42.00;19.30;;;;;;5034183;28;20409;-69
2023/07/19 10:33:22;;;;;;;;;;;41.80;19.50;;;;;;5027566;28;19944;-69
2023/07/19 10:35:52;;;;;;;;;;;41.80;19.50;;;;;;5031739;28;19992;-68
2023/07/19 10:38:18;;;;;;;;;;;41.50;19.10;;;;;;5011767;28;20396;-68
2023/07/19 10:40:46;;;;;;;;;;;41.50;19.80;;;;;;5027772;28;19920;-68
2023/07/19 10:43:12;;;;;;;;;;;41.60;19.40;;;;;;5014623;28;20362;-70
2023/07/19 10:45:37;;;;;;;;;;;41.50;19.50;;;;;;5022251;28;19919;-69
2023/07/19 10:48:03;;;;;;;;;;;41.30;19.70;;;;;;5040090;28;19921;-69
2023/07/19 10:50:29;;;;;;;;;;;41.00;19.40;;;;;;5034329;28;19909;-69
2023/07/19 10:52:54;;;;;;;;;;;40.60;19.60;;;;;;5030586;28;19929;-69
2023/07/19 10:55:20;;;;;;;;;;;40.20;19.80;;;;;;5048431;28;20083;-74
2023/07/19 10:57:46;;;;;;;;;;;39.90;20.30;;;;;;5024955;28;19917;-70
2023/07/19 11:00:12;;;;;;;;;;;39.70;20.60;;;;;;5051120;28;19967;-69
2023/07/19 11:02:41;;;;;;;;;;;39.40;20.80;;;;;;5036922;28;19924;-71
2023/07/19 11:05:07;;;;;;;;;;;39.20;21.10;;;;;;5004966;28;19909;-72
2023/07/19 11:07:33;;;;;;;;;;;39.00;21.20;;;;;;5014552;28;19917;-69
2023/07/19 11:09:59;;;;;;;;;;;38.80;21.60;;;;;;5026700;28;20390;-70
2023/07/19 11:12:25;;;;;;;;;;;38.80;21.60;;;;;;5038706;28;19928;-69
2023/07/19 11:14:57;;;;;;;;;;;38.70;21.60;;;;;;5050406;28;19920;-69
2023/07/19 11:17:24;;;;;;;;;;;38.50;21.50;;;;;;5014602;28;20376;-70
2023/07/19 11:19:50;;;;;;;;;;;38.30;21.70;;;;;;5014655;28;20348;-70
2023/07/19 11:22:19;;;;;;;;;;;38.10;22.00;;;;;;5048369;28;20004;-69
2023/07/19 11:24:45;;;;;;;;;;;37.80;22.00;;;;;;5048778;28;19914;-69
2023/07/19 11:27:12;;;;;;;;;;;37.50;22.30;;;;;;5033304;28;19928;-70
2023/07/19 11:29:37;;;;;;;;;;;37.40;22.60;;;;;;5032605;28;20029;-69
2023/07/19 11:32:20;;;;;;;;;;;37.30;22.80;;;;;;5033043;28;19947;-69
2023/07/19 11:34:53;;;;;;;;;;;37.30;22.90;;;;;;5030526;28;19923;-69
2023/07/19 11:37:19;;;;;;;;;;;37.50;23.00;;;;;;5032385;28;19983;-68
2023/07/19 11:39:46;;;;;;;;;;;37.40;22.90;;;;;;5020416;28;21266;-68
2023/07/19 11:42:11;;;;;;;;;;;37.30;23.00;;;;;;5028425;28;20026;-68
2023/07/19 11:44:43;;;;;;;;;;;37.20;23.00;;;;;;5049596;28;19927;-69
2023/07/19 11:47:09;;;;;;;;;;;37.00;23.20;;;;;;5037825;28;20365;-68
2023/07/19 11:49:34;;;;;;;;;;;36.80;23.40;;;;;;5053271;28;19908;-68
2023/07/19 11:52:00;;;;;;;;;;;36.90;23.70;;;;;;5019686;28;19957;-71
2023/07/19 11:54:25;;;;;;;;;;;37.00;23.70;;;;;;5051507;28;19975;-70
2023/07/19 11:56:50;;;;;;;;;;;37.00;23.30;;;;;;5034018;28;19959;-70
2023/07/19 11:59:16;;;;;;;;;;;36.80;23.40;;;;;;5035155;28;20067;-70
2023/07/19 12:01:42;;;;;;;;;;;36.70;23.60;;;;;;5036432;28;19913;-70
2023/07/19 12:04:07;;;;;;;;;;;36.90;23.80;;;;;;5038605;28;19913;-69
2023/07/19 12:06:33;;;;;;;;;;;37.00;23.60;;;;;;5028537;28;19939;-69
2023/07/19 12:08:58;;;;;;;;;;;37.00;23.70;;;;;;5019488;28;20437;-69
2023/07/19 12:11:24;;;;;;;;;;;37.00;23.70;;;;;;5009249;28;20321;-69
2023/07/19 12:13:50;;;;;;;;;;;36.80;23.60;;;;;;5031953;28;20011;-70
2023/07/19 12:16:18;;;;;;;;;;;36.60;23.80;;;;;;5029179;28;19924;-69
2023/07/19 12:18:43;;;;;;;;;;;36.40;24.00;;;;;;5028658;28;20305;-70
2023/07/19 12:21:09;;;;;;;;;;;36.30;24.20;;;;;;5010749;28;19910;-69
2023/07/19 12:23:36;;;;;;;;;;;36.20;24.20;;;;;;5021769;28;20373;-70
2023/07/19 12:26:02;;;;;;;;;;;36.00;24.50;;;;;;5035026;28;19941;-69
2023/07/19 12:28:27;;;;;;;;;;;35.90;24.70;;;;;;5016155;28;20030;-68
2023/07/19 12:30:54;;;;;;;;;;;36.00;24.70;;;;;;5032369;28;19916;-69
2023/07/19 12:33:19;;;;;;;;;;;36.00;24.50;;;;;;5031251;28;19948;-70
2023/07/19 12:35:46;;;;;;;;;;;35.80;24.60;;;;;;5030978;28;19914;-69
2023/07/19 12:38:13;;;;;;;;;;;35.80;24.70;;;;;;5014598;28;19925;-69
2023/07/19 12:40:38;;;;;;;;;;;35.80;24.80;;;;;;5012561;28;19961;-70
2023/07/19 12:43:04;;;;;;;;;;;35.80;24.90;;;;;;5029854;28;19955;-71
2023/07/19 12:45:29;;;;;;;;;;;35.80;24.60;;;;;;5042209;28;19914;-70
2023/07/19 12:47:54;;;;;;;;;;;35.70;24.60;;;;;;5030056;28;20023;-70
2023/07/19 12:50:20;;;;;;;;;;;35.70;24.80;;;;;;5032336;28;20426;-69
2023/07/19 12:52:45;;;;;;;;;;;35.90;24.90;;;;;;5046342;28;20019;-70
2023/07/19 12:55:11;;;;;;;;;;;36.30;24.60;;;;;;5030986;28;19908;-71
2023/07/19 12:57:36;;;;;;;;;;;36.40;24.20;;;;;;5031811;28;20371;-70
2023/07/19 13:00:04;;;;;;;;;;;36.50;24.10;;;;;;5051354;28;19939;-70
2023/07/19 13:02:31;;;;;;;;;;;36.70;24.10;;;;;;5027900;28;20333;-71
2023/07/19 13:04:57;;;;;;;;;;;36.80;23.80;;;;;;5030880;28;20312;-70
2023/07/19 13:07:22;;;;;;;;;;;36.90;23.70;;;;;;5032008;28;19926;-71
2023/07/19 13:09:48;;;;;;;;;;;36.80;23.60;;;;;;5032193;28;19909;-71
2023/07/19 13:12:14;;;;;;;;;;;36.80;23.80;;;;;;5037962;28;20384;-69
2023/07/19 13:14:39;;;;;;;;;;;37.00;23.70;;;;;;5047177;28;19913;-69
2023/07/19 13:17:05;;;;;;;;;;;37.10;23.50;;;;;;5047355;28;20315;-69
2023/07/19 13:19:30;;;;;;;;;;;37.10;23.50;;;;;;5037777;28;19920;-69
2023/07/19 13:21:56;;;;;;;;;;;37.20;23.10;;;;;;5029170;28;19917;-69
2023/07/19 13:24:21;;;;;;;;;;;37.20;23.30;;;;;;5034229;28;19913;-70
2023/07/19 13:26:47;;;;;;;;;;;37.30;23.60;;;;;;5021216;28;19920;-70
2023/07/19 13:29:12;;;;;;;;;;;37.30;23.50;;;;;;5022202;28;19920;-70
2023/07/19 13:31:38;;;;;;;;;;;37.30;23.30;;;;;;5024406;28;19909;-70
2023/07/19 13:34:03;;;;;;;;;;;37.20;23.20;;;;;;5011666;28;19937;-71
2023/07/19 13:36:31;;;;;;;;;;;36.80;23.40;;;;;;5024160;28;19964;-70
2023/07/19 13:38:56;;;;;;;;;;;36.70;23.70;;;;;;5011937;28;19925;-70
2023/07/19 13:41:22;;;;;;;;;;;36.50;23.90;;;;;;5014020;28;19916;-69
2023/07/19 13:43:47;;;;;;;;;;;36.40;24.10;;;;;;5051914;28;19917;-68
2023/07/19 13:46:13;;;;;;;;;;;36.40;24.40;;;;;;5031258;28;19909;-69
2023/07/19 13:48:38;;;;;;;;;;;36.80;24.20;;;;;;5012118;28;20416;-76
2023/07/19 13:51:04;;;;;;;;;;;37.10;24.10;;;;;;5021807;28;19975;-77
2023/07/19 13:53:30;;;;;;;;;;;37.30;24.00;;;;;;5011389;28;20024;-77
2023/07/19 13:55:55;;;;;;;;;;;37.40;23.50;;;;;;5025884;28;19916;-77
2023/07/19 13:58:21;;;;;;;;;;;37.30;23.60;;;;;;5051154;28;19917;-77
2023/07/19 14:00:46;;;;;;;;;;;37.20;23.60;;;;;;5042112;28;19932;-76
2023/07/19 14:03:12;;;;;;;;;;;37.10;23.60;;;;;;5046359;28;19924;-77
2023/07/19 14:05:38;;;;;;;;;;;37.30;23.60;;;;;;5031378;28;19909;-78
2023/07/19 14:08:04;;;;;;;;;;;37.50;23.60;;;;;;5046722;28;19928;-76
2023/07/19 14:10:31;;;;;;;;;;;37.80;23.50;;;;;;5043282;28;19975;-76